sensor_id;sensor_type;location;lat;lon;timestamp;temperature;humidity
14144;DHT22;7152;48.348;10.980;2024-01-15T16:06:26;-0.20;99.90
14144;DHT22;7152;48.348;10.980;2024-01-15T16:08:53;-0.30;99.90
14144;DHT22;7152;48.348;10.980;2024-01-15T16:11:18;-0.30;99.90
14144;DHT22;7152;48.348;10.980;2024-01-15T16:13:45;-0.30;99.90
14144;DHT22;7152;48.348;10.980;2024-01-15T16:16:11;-0.20;99.90
14144;DHT22;7152;48.348;10.980;2024-01-15T16:18:37;-0.20;99.90
14144;DHT22;7152;48.348;10.980;2024-01-15T16:21:02;-0.10;99.90
14144;DHT22;7152;48.348;10.980;2024-01-15T16:23:28;-0.10;99.90
14144;DHT22;7152;48.348;10.980;2024-01-15T16:25:54;0.00;99.90
14144;DHT22;7152;48.348;10.980;2024-01-15T16:28:20;0.00;99.90
14144;DHT22;7152;48.348;10.980;2024-01-15T16:30:46;0.10;99.90
14144;DHT22;7152;48.348;10.980;2024-01-15T16:33:12;0.00;99.90
14144;DHT22;7152;48.348;10.980;2024-01-15T16:35:38;0.00;99.90
14144;DHT22;7152;48.348;10.980;2024-01-15T16:38:05;0.00;99.90
14144;DHT22;7152;48.348;10.980;2024-01-15T16:40:31;0.00;99.90
14144;DHT22;7152;48.348;10.980;2024-01-15T16:42:57;-0.10;99.90
14144;DHT22;7152;48.348;10.980;2024-01-15T16:45:22;-0.30;99.90
14144;DHT22;7152;48.348;10.980;2024-01-15T16:47:48;-0.40;99.90
14144;DHT22;7152;48.348;10.980;2024-01-15T16:50:14;-0.50;99.90
14144;DHT22;7152;48.348;10.980;2024-01-15T16:52:40;-0.50;99.90
14144;DHT22;7152;48.348;10.980;2024-01-15T16:55:06;-0.60;99.90
14144;DHT22;7152;48.348;10.980;2024-01-15T16:57:32;-0.70;99.90
14144;DHT22;7152;48.348;10.980;2024-01-15T16:59:58;-0.70;99.90
14144;DHT22;7152;48.348;10.980;2024-01-15T17:02:23;-0.70;99.90
14144;DHT22;7152;48.348;10.980;2024-01-15T17:04:50;-0.70;99.90
14144;DHT22;7152;48.348;10.980;2024-01-15T17:07:15;-0.70;99.90
14144;DHT22;7152;48.348;10.980;2024-01-15T17:09:42;-0.80;99.90
14144;DHT22;7152;48.348;10.980;2024-01-15T17:12:09;-0.70;99.90
14144;DHT22;7152;48.348;10.980;2024-01-15T17:14:34;-0.70;99.90
14144;DHT22;7152;48.348;10.980;2024-01-15T17:17:00;-0.70;99.90
14144;DHT22;7152;48.348;10.980;2024-01-15T17:19:26;-0.70;99.90
14144;DHT22;7152;48.348;10.980;2024-01-15T17:21:53;-0.80;99.90
14144;DHT22;7152;48.348;10.980;2024-01-15T17:24:19;-0.70;99.90
14144;DHT22;7152;48.348;10.980;2024-01-15T17:26:45;-0.70;99.90
14144;DHT22;7152;48.348;10.980;2024-01-15T17:29:11;-0.70;99.90
14144;DHT22;7152;48.348;10.980;2024-01-15T17:31:37;-0.70;99.90
14144;DHT22;7152;48.348;10.980;2024-01-15T17:34:03;-0.80;99.90
14144;DHT22;7152;48.348;10.980;2024-01-15T17:36:30;-0.70;99.90
14144;DHT22;7152;48.348;10.980;2024-01-15T17:38:56;-0.80;99.90
14144;DHT22;7152;48.348;10.980;2024-01-15T17:41:23;-0.90;99.90
14144;DHT22;7152;48.348;10.980;2024-01-15T17:43:49;-0.90;99.90
14144;DHT22;7152;48.348;10.980;2024-01-15T17:46:14;-0.90;99.90
14144;DHT22;7152;48.348;10.980;2024-01-15T17:48:40;-0.90;99.90
14144;DHT22;7152;48.348;10.980;2024-01-15T17:51:07;-0.90;99.90
14144;DHT22;7152;48.348;10.980;2024-01-15T17:53:32;-0.80;99.90
14144;DHT22;7152;48.348;10.980;2024-01-15T17:56:01;-0.90;99.90
14144;DHT22;7152;48.348;10.980;2024-01-15T17:58:27;-0.90;99.90
14144;DHT22;7152;48.348;10.980;2024-01-15T18:00:54;-1.00;99.90
14144;DHT22;7152;48.348;10.980;2024-01-15T18:03:19;-1.00;99.90
14144;DHT22;7152;48.348;10.980;2024-01-15T18:05:45;-1.10;99.90
14144;DHT22;7152;48.348;10.980;2024-01-15T18:08:11;-1.10;99.90
14144;DHT22;7152;48.348;10.980;2024-01-15T18:10:38;-1.10;99.90
14144;DHT22;7152;48.348;10.980;2024-01-15T18:13:04;-1.10;99.90
14144;DHT22;7152;48.348;10.980;2024-01-15T18:15:31;-1.20;99.90
14144;DHT22;7152;48.348;10.980;2024-01-15T18:17:56;-1.20;99.90
14144;DHT22;7152;48.348;10.980;2024-01-15T18:20:22;-1.30;99.90
14144;DHT22;7152;48.348;10.980;2024-01-15T18:22:48;-1.30;99.90
14144;DHT22;7152;48.348;10.980;2024-01-15T18:25:15;-1.30;99.90
14144;DHT22;7152;48.348;10.980;2024-01-15T18:27:41;-1.40;99.90
14144;DHT22;7152;48.348;10.980;2024-01-15T18:30:07;-1.40;99.90
14144;DHT22;7152;48.348;10.980;2024-01-15T18:32:37;-1.40;99.90
14144;DHT22;7152;48.348;10.980;2024-01-15T18:35:03;-1.40;99.90
14144;DHT22;7152;48.348;10.980;2024-01-15T18:37:29;-1.50;99.90
14144;DHT22;7152;48.348;10.980;2024-01-15T18:39:55;-1.50;99.90
14144;DHT22;7152;48.348;10.980;2024-01-15T18:42:21;-1.60;99.90
14144;DHT22;7152;48.348;10.980;2024-01-15T18:44:47;-1.60;99.90
14144;DHT22;7152;48.348;10.980;2024-01-15T18:47:12;-1.60;99.90
14144;DHT22;7152;48.348;10.980;2024-01-15T18:49:38;-1.70;99.90
14144;DHT22;7152;48.348;10.980;2024-01-15T18:52:04;-1.70;99.90
14144;DHT22;7152;48.348;10.980;2024-01-15T18:54:30;-1.70;99.90
14144;DHT22;7152;48.348;10.980;2024-01-15T18:56:56;-1.80;99.90
14144;DHT22;7152;48.348;10.980;2024-01-15T18:59:22;-1.80;99.90
14144;DHT22;7152;48.348;10.980;2024-01-15T19:01:49;-1.80;99.90
14144;DHT22;7152;48.348;10.980;2024-01-15T19:04:15;-1.80;99.90
14144;DHT22;7152;48.348;10.980;2024-01-15T19:06:41;-1.90;99.90
14144;DHT22;7152;48.348;10.980;2024-01-15T19:09:07;-1.90;99.90
14144;DHT22;7152;48.348;10.980;2024-01-15T19:11:35;-1.90;99.90
14144;DHT22;7152;48.348;10.980;2024-01-15T19:14:01;-1.90;99.90
14144;DHT22;7152;48.348;10.980;2024-01-15T19:16:27;-2.00;99.90
14144;DHT22;7152;48.348;10.980;2024-01-15T19:18:53;-2.10;99.90
14144;DHT22;7152;48.348;10.980;2024-01-15T19:21:19;-2.10;99.90
14144;DHT22;7152;48.348;10.980;2024-01-15T19:23:45;-2.00;99.90
14144;DHT22;7152;48.348;10.980;2024-01-15T19:28:44;-2.10;99.90
14144;DHT22;7152;48.348;10.980;2024-01-15T19:31:10;-2.10;99.90
14144;DHT22;7152;48.348;10.980;2024-01-15T19:33:36;-2.10;99.90
14144;DHT22;7152;48.348;10.980;2024-01-15T19:36:02;-2.10;99.90
14144;DHT22;7152;48.348;10.980;2024-01-15T19:38:28;-2.20;99.90
14144;DHT22;7152;48.348;10.980;2024-01-15T19:40:55;-2.20;99.90
14144;DHT22;7152;48.348;10.980;2024-01-15T19:43:21;-2.20;99.90
14144;DHT22;7152;48.348;10.980;2024-01-15T19:45:48;-2.20;99.90
14144;DHT22;7152;48.348;10.980;2024-01-15T19:48:13;-2.20;99.90
14144;DHT22;7152;48.348;10.980;2024-01-15T19:50:43;-2.30;99.90
14144;DHT22;7152;48.348;10.980;2024-01-15T19:53:09;-2.30;99.90
14144;DHT22;7152;48.348;10.980;2024-01-15T19:55:35;-2.30;99.90
14144;DHT22;7152;48.348;10.980;2024-01-15T19:58:01;-2.40;99.90
14144;DHT22;7152;48.348;10.980;2024-01-15T20:00:27;-2.40;99.90
14144;DHT22;7152;48.348;10.980;2024-01-15T20:02:53;-2.40;99.90
14144;DHT22;7152;48.348;10.980;2024-01-15T20:05:19;-2.40;99.90
14144;DHT22;7152;48.348;10.980;2024-01-15T20:07:45;-2.40;99.90
14144;DHT22;7152;48.348;10.980;2024-01-15T20:10:11;-2.50;99.90
14144;DHT22;7152;48.348;10.980;2024-01-15T20:12:38;-2.50;99.90
14144;DHT22;7152;48.348;10.980;2024-01-15T20:15:05;-2.60;99.90
14144;DHT22;7152;48.348;10.980;2024-01-15T20:17:31;-2.60;99.90
14144;DHT22;7152;48.348;10.980;2024-01-15T20:19:57;-2.60;99.90
14144;DHT22;7152;48.348;10.980;2024-01-15T20:22:23;-2.60;99.90
14144;DHT22;7152;48.348;10.980;2024-01-15T20:24:49;-2.50;99.90
14144;DHT22;7152;48.348;10.980;2024-01-15T20:27:15;-2.50;99.90
14144;DHT22;7152;48.348;10.980;2024-01-15T20:29:42;-2.40;99.90
14144;DHT22;7152;48.348;10.980;2024-01-15T20:32:08;-2.30;99.90
14144;DHT22;7152;48.348;10.980;2024-01-15T20:34:34;-2.20;99.90
14144;DHT22;7152;48.348;10.980;2024-01-15T20:37:00;-2.10;99.90
14144;DHT22;7152;48.348;10.980;2024-01-15T20:39:26;-2.00;99.90
14144;DHT22;7152;48.348;10.980;2024-01-15T20:41:52;-2.10;99.90
14144;DHT22;7152;48.348;10.980;2024-01-15T20:44:18;-2.10;99.90
14144;DHT22;7152;48.348;10.980;2024-01-15T20:46:46;-2.10;99.90
14144;DHT22;7152;48.348;10.980;2024-01-15T20:49:13;-2.20;99.90
14144;DHT22;7152;48.348;10.980;2024-01-15T20:51:39;-2.20;99.90
14144;DHT22;7152;48.348;10.980;2024-01-15T20:54:04;-2.20;99.90
14144;DHT22;7152;48.348;10.980;2024-01-15T20:56:30;-2.20;99.90
14144;DHT22;7152;48.348;10.980;2024-01-15T20:58:56;-2.20;99.90
14144;DHT22;7152;48.348;10.980;2024-01-15T21:01:22;-2.20;99.90
14144;DHT22;7152;48.348;10.980;2024-01-15T21:03:48;-2.20;99.90
14144;DHT22;7152;48.348;10.980;2024-01-15T21:06:13;-2.20;99.90
14144;DHT22;7152;48.348;10.980;2024-01-15T21:08:39;-2.20;99.90
14144;DHT22;7152;48.348;10.980;2024-01-15T21:11:06;-2.20;99.90
14144;DHT22;7152;48.348;10.980;2024-01-15T21:13:32;-2.20;99.90
14144;DHT22;7152;48.348;10.980;2024-01-15T21:15:59;-2.30;99.90
14144;DHT22;7152;48.348;10.980;2024-01-15T21:18:24;-2.30;99.90
14144;DHT22;7152;48.348;10.980;2024-01-15T21:20:50;-2.30;99.90
14144;DHT22;7152;48.348;10.980;2024-01-15T21:23:16;-2.30;99.90
14144;DHT22;7152;48.348;10.980;2024-01-15T21:25:42;-2.30;99.90
14144;DHT22;7152;48.348;10.980;2024-01-15T21:28:09;-2.20;99.90
14144;DHT22;7152;48.348;10.980;2024-01-15T21:30:35;-2.30;99.90
14144;DHT22;7152;48.348;10.980;2024-01-15T21:33:02;-2.30;99.90
14144;DHT22;7152;48.348;10.980;2024-01-15T21:35:30;-2.30;99.90
14144;DHT22;7152;48.348;10.980;2024-01-15T21:37:56;-2.30;99.90
14144;DHT22;7152;48.348;10.980;2024-01-15T21:40:22;-2.20;99.90
14144;DHT22;7152;48.348;10.980;2024-01-15T21:42:48;-2.20;99.90
14144;DHT22;7152;48.348;10.980;2024-01-15T21:45:14;-2.20;99.90
14144;DHT22;7152;48.348;10.980;2024-01-15T21:47:40;-2.20;99.90
14144;DHT22;7152;48.348;10.980;2024-01-15T21:50:06;-2.10;99.90
14144;DHT22;7152;48.348;10.980;2024-01-15T21:52:34;-2.10;99.90
14144;DHT22;7152;48.348;10.980;2024-01-15T21:55:01;-2.00;99.90
14144;DHT22;7152;48.348;10.980;2024-01-15T21:57:27;-2.00;99.90
14144;DHT22;7152;48.348;10.980;2024-01-15T21:59:53;-1.90;99.90
14144;DHT22;7152;48.348;10.980;2024-01-15T22:02:18;-2.00;99.90
14144;DHT22;7152;48.348;10.980;2024-01-15T22:04:44;-2.00;99.90
14144;DHT22;7152;48.348;10.980;2024-01-15T22:07:10;-2.00;99.90
14144;DHT22;7152;48.348;10.980;2024-01-15T22:09:36;-2.00;99.90
14144;DHT22;7152;48.348;10.980;2024-01-15T22:12:02;-2.00;99.90
14144;DHT22;7152;48.348;10.980;2024-01-15T22:14:28;-2.00;99.90
14144;DHT22;7152;48.348;10.980;2024-01-15T22:16:54;-2.10;99.90
14144;DHT22;7152;48.348;10.980;2024-01-15T22:19:20;-2.10;99.90
